sensor_id;sensor_type;location;lat;lon;timestamp;P1;durP1;ratioP1;P2;durP2;ratioP2
18001;SDS011;9126;48.160;17.130;2022-08-01T00:01:44;3.70;;;2.63;;
18001;SDS011;9126;48.160;17.130;2022-08-01T00:04:12;3.47;;;2.83;;
18001;SDS011;9126;48.160;17.130;2022-08-01T00:06:39;3.78;;;2.90;;
18001;SDS011;9126;48.160;17.130;2022-08-01T00:09:07;3.25;;;2.95;;
18001;SDS011;9126;48.160;17.130;2022-08-01T00:11:34;3.58;;;2.55;;
18001;SDS011;9126;48.160;17.130;2022-08-01T00:14:01;5.05;;;2.90;;
18001;SDS011;9126;48.160;17.130;2022-08-01T00:16:29;4.88;;;3.10;;
18001;SDS011;9126;48.160;17.130;2022-08-01T00:18:56;3.17;;;2.85;;
18001;SDS011;9126;48.160;17.130;2022-08-01T00:21:23;2.90;;;2.65;;
18001;SDS011;9126;48.160;17.130;2022-08-01T00:23:50;7.55;;;3.40;;
18001;SDS011;9126;48.160;17.130;2022-08-01T00:26:18;5.13;;;3.08;;
18001;SDS011;9126;48.160;17.130;2022-08-01T00:28:45;3.25;;;2.85;;
18001;SDS011;9126;48.160;17.130;2022-08-01T00:31:12;4.53;;;3.00;;
18001;SDS011;9126;48.160;17.130;2022-08-01T00:33:39;4.82;;;3.10;;
18001;SDS011;9126;48.160;17.130;2022-08-01T00:36:06;3.63;;;2.90;;
18001;SDS011;9126;48.160;17.130;2022-08-01T00:38:33;5.15;;;3.08;;
18001;SDS011;9126;48.160;17.130;2022-08-01T00:41:01;2.78;;;2.58;;
18001;SDS011;9126;48.160;17.130;2022-08-01T00:43:29;3.50;;;3.20;;
18001;SDS011;9126;48.160;17.130;2022-08-01T00:45:56;3.45;;;3.15;;
18001;SDS011;9126;48.160;17.130;2022-08-01T00:48:23;3.25;;;2.90;;
18001;SDS011;9126;48.160;17.130;2022-08-01T00:50:50;4.55;;;2.90;;
18001;SDS011;9126;48.160;17.130;2022-08-01T00:53:17;3.40;;;3.10;;
18001;SDS011;9126;48.160;17.130;2022-08-01T00:55:44;2.80;;;2.60;;
18001;SDS011;9126;48.160;17.130;2022-08-01T00:58:12;2.85;;;2.60;;
18001;SDS011;9126;48.160;17.130;2022-08-01T01:00:41;3.35;;;2.83;;
18001;SDS011;9126;48.160;17.130;2022-08-01T01:03:08;3.97;;;3.22;;
18001;SDS011;9126;48.160;17.130;2022-08-01T01:05:36;3.88;;;3.45;;
18001;SDS011;9126;48.160;17.130;2022-08-01T01:08:08;4.43;;;3.60;;
18001;SDS011;9126;48.160;17.130;2022-08-01T01:10:40;4.70;;;3.60;;
18001;SDS011;9126;48.160;17.130;2022-08-01T01:13:13;4.13;;;3.05;;
18001;SDS011;9126;48.160;17.130;2022-08-01T01:15:49;3.88;;;3.40;;
18001;SDS011;9126;48.160;17.130;2022-08-01T01:18:20;5.70;;;3.85;;
18001;SDS011;9126;48.160;17.130;2022-08-01T01:20:52;4.63;;;3.17;;
18001;SDS011;9126;48.160;17.130;2022-08-01T01:23:29;3.70;;;3.40;;
18001;SDS011;9126;48.160;17.130;2022-08-01T01:26:17;3.60;;;3.30;;
18001;SDS011;9126;48.160;17.130;2022-08-01T01:29:03;3.67;;;3.38;;
18001;SDS011;9126;48.160;17.130;2022-08-01T01:31:36;4.25;;;3.67;;
18001;SDS011;9126;48.160;17.130;2022-08-01T01:34:08;3.55;;;3.20;;
18001;SDS011;9126;48.160;17.130;2022-08-01T01:36:39;3.47;;;3.17;;
18001;SDS011;9126;48.160;17.130;2022-08-01T01:39:08;6.45;;;3.65;;
18001;SDS011;9126;48.160;17.130;2022-08-01T01:41:36;5.05;;;3.30;;
18001;SDS011;9126;48.160;17.130;2022-08-01T01:44:06;4.25;;;3.45;;
18001;SDS011;9126;48.160;17.130;2022-08-01T01:46:35;3.92;;;3.55;;
18001;SDS011;9126;48.160;17.130;2022-08-01T01:49:03;4.85;;;3.38;;
18001;SDS011;9126;48.160;17.130;2022-08-01T01:51:31;3.80;;;3.17;;
18001;SDS011;9126;48.160;17.130;2022-08-01T01:53:59;4.82;;;3.58;;
18001;SDS011;9126;48.160;17.130;2022-08-01T01:56:28;3.78;;;3.42;;
18001;SDS011;9126;48.160;17.130;2022-08-01T01:58:58;4.38;;;3.95;;
18001;SDS011;9126;48.160;17.130;2022-08-01T02:01:29;4.00;;;3.25;;
18001;SDS011;9126;48.160;17.130;2022-08-01T02:03:58;7.00;;;3.80;;
18001;SDS011;9126;48.160;17.130;2022-08-01T02:06:27;4.30;;;3.72;;
18001;SDS011;9126;48.160;17.130;2022-08-01T02:08:57;4.05;;;3.70;;
18001;SDS011;9126;48.160;17.130;2022-08-01T02:11:27;5.43;;;3.72;;
18001;SDS011;9126;48.160;17.130;2022-08-01T02:13:55;4.70;;;3.45;;
18001;SDS011;9126;48.160;17.130;2022-08-01T02:16:26;8.93;;;3.80;;
18001;SDS011;9126;48.160;17.130;2022-08-01T02:18:57;8.13;;;4.18;;
18001;SDS011;9126;48.160;17.130;2022-08-01T02:21:25;4.72;;;3.80;;
18001;SDS011;9126;48.160;17.130;2022-08-01T02:23:55;4.55;;;3.88;;
18001;SDS011;9126;48.160;17.130;2022-08-01T02:26:28;5.10;;;3.53;;
18001;SDS011;9126;48.160;17.130;2022-08-01T02:28:57;4.13;;;3.75;;
18001;SDS011;9126;48.160;17.130;2022-08-01T02:31:27;3.95;;;3.50;;
18001;SDS011;9126;48.160;17.130;2022-08-01T02:34:02;11.48;;;4.10;;
18001;SDS011;9126;48.160;17.130;2022-08-01T02:36:32;8.18;;;3.90;;
18001;SDS011;9126;48.160;17.130;2022-08-01T02:39:03;7.75;;;3.85;;
18001;SDS011;9126;48.160;17.130;2022-08-01T02:41:36;5.22;;;3.78;;
18001;SDS011;9126;48.160;17.130;2022-08-01T02:44:07;7.07;;;3.63;;
18001;SDS011;9126;48.160;17.130;2022-08-01T02:46:39;6.38;;;3.13;;
18001;SDS011;9126;48.160;17.130;2022-08-01T02:49:10;5.03;;;3.42;;
18001;SDS011;9126;48.160;17.130;2022-08-01T02:51:40;5.35;;;3.85;;
18001;SDS011;9126;48.160;17.130;2022-08-01T02:54:08;5.50;;;3.30;;
18001;SDS011;9126;48.160;17.130;2022-08-01T02:56:37;6.85;;;3.67;;
18001;SDS011;9126;48.160;17.130;2022-08-01T02:59:07;4.57;;;4.13;;
18001;SDS011;9126;48.160;17.130;2022-08-01T03:01:36;4.18;;;3.70;;
18001;SDS011;9126;48.160;17.130;2022-08-01T03:04:09;5.45;;;4.00;;
18001;SDS011;9126;48.160;17.130;2022-08-01T03:06:38;4.20;;;3.67;;
18001;SDS011;9126;48.160;17.130;2022-08-01T03:09:06;4.55;;;3.95;;
18001;SDS011;9126;48.160;17.130;2022-08-01T03:11:34;4.63;;;4.18;;
18001;SDS011;9126;48.160;17.130;2022-08-01T03:14:05;7.00;;;3.97;;
18001;SDS011;9126;48.160;17.130;2022-08-01T03:16:36;5.32;;;3.97;;
18001;SDS011;9126;48.160;17.130;2022-08-01T03:19:08;4.45;;;3.70;;
18001;SDS011;9126;48.160;17.130;2022-08-01T03:21:38;6.43;;;4.38;;
18001;SDS011;9126;48.160;17.130;2022-08-01T03:24:07;4.30;;;3.95;;
18001;SDS011;9126;48.160;17.130;2022-08-01T03:26:36;4.95;;;3.67;;
18001;SDS011;9126;48.160;17.130;2022-08-01T03:29:06;4.82;;;4.07;;
18001;SDS011;9126;48.160;17.130;2022-08-01T03:31:40;5.35;;;4.00;;
18001;SDS011;9126;48.160;17.130;2022-08-01T03:34:12;7.30;;;4.38;;
18001;SDS011;9126;48.160;17.130;2022-08-01T03:36:47;5.28;;;3.70;;
18001;SDS011;9126;48.160;17.130;2022-08-01T03:39:17;4.93;;;4.13;;
18001;SDS011;9126;48.160;17.130;2022-08-01T03:41:50;4.10;;;3.65;;
18001;SDS011;9126;48.160;17.130;2022-08-01T03:44:23;4.45;;;4.03;;
18001;SDS011;9126;48.160;17.130;2022-08-01T03:46:56;5.88;;;3.92;;
18001;SDS011;9126;48.160;17.130;2022-08-01T03:49:28;7.78;;;4.10;;
18001;SDS011;9126;48.160;17.130;2022-08-01T03:51:57;4.88;;;4.15;;
18001;SDS011;9126;48.160;17.130;2022-08-01T03:54:32;4.50;;;4.10;;
18001;SDS011;9126;48.160;17.130;2022-08-01T03:57:02;7.55;;;4.30;;
18001;SDS011;9126;48.160;17.130;2022-08-01T03:59:38;6.45;;;4.20;;
18001;SDS011;9126;48.160;17.130;2022-08-01T04:02:07;6.13;;;4.00;;
18001;SDS011;9126;48.160;17.130;2022-08-01T04:04:34;5.15;;;3.30;;
18001;SDS011;9126;48.160;17.130;2022-08-01T04:07:02;4.05;;;3.10;;
18001;SDS011;9126;48.160;17.130;2022-08-01T04:09:32;5.50;;;3.53;;
18001;SDS011;9126;48.160;17.130;2022-08-01T04:11:59;12.48;;;4.43;;
18001;SDS011;9126;48.160;17.130;2022-08-01T04:14:27;5.82;;;5.07;;
18001;SDS011;9126;48.160;17.130;2022-08-01T04:16:54;5.80;;;5.30;;
18001;SDS011;9126;48.160;17.130;2022-08-01T04:19:22;13.98;;;5.95;;
18001;SDS011;9126;48.160;17.130;2022-08-01T04:21:51;13.90;;;6.00;;
18001;SDS011;9126;48.160;17.130;2022-08-01T04:24:18;10.15;;;6.57;;
18001;SDS011;9126;48.160;17.130;2022-08-01T04:26:47;13.95;;;7.57;;
18001;SDS011;9126;48.160;17.130;2022-08-01T04:29:17;8.75;;;6.85;;
18001;SDS011;9126;48.160;17.130;2022-08-01T04:31:46;10.55;;;6.50;;
18001;SDS011;9126;48.160;17.130;2022-08-01T04:34:16;10.90;;;8.38;;
18001;SDS011;9126;48.160;17.130;2022-08-01T04:36:48;10.65;;;9.65;;
18001;SDS011;9126;48.160;17.130;2022-08-01T04:39:17;13.75;;;12.32;;
18001;SDS011;9126;48.160;17.130;2022-08-01T04:41:46;14.95;;;10.88;;
18001;SDS011;9126;48.160;17.130;2022-08-01T04:44:15;10.48;;;9.38;;
18001;SDS011;9126;48.160;17.130;2022-08-01T04:46:42;14.38;;;9.13;;
18001;SDS011;9126;48.160;17.130;2022-08-01T04:49:13;8.75;;;7.90;;
18001;SDS011;9126;48.160;17.130;2022-08-01T04:51:52;9.30;;;8.35;;
18001;SDS011;9126;48.160;17.130;2022-08-01T04:54:23;12.57;;;8.50;;
18001;SDS011;9126;48.160;17.130;2022-08-01T04:56:50;10.10;;;8.80;;
18001;SDS011;9126;48.160;17.130;2022-08-01T04:59:18;12.15;;;7.93;;
18001;SDS011;9126;48.160;17.130;2022-08-01T05:02:03;10.48;;;7.90;;
18001;SDS011;9126;48.160;17.130;2022-08-01T05:04:30;8.73;;;7.90;;
18001;SDS011;9126;48.160;17.130;2022-08-01T05:06:59;13.02;;;8.02;;
18001;SDS011;9126;48.160;17.130;2022-08-01T05:09:27;10.52;;;8.32;;
18001;SDS011;9126;48.160;17.130;2022-08-01T05:11:55;9.00;;;7.60;;
18001;SDS011;9126;48.160;17.130;2022-08-01T05:14:23;11.70;;;8.70;;
18001;SDS011;9126;48.160;17.130;2022-08-01T05:16:50;7.50;;;6.47;;
18001;SDS011;9126;48.160;17.130;2022-08-01T05:19:17;11.65;;;6.82;;
18001;SDS011;9126;48.160;17.130;2022-08-01T05:21:45;8.60;;;6.45;;
18001;SDS011;9126;48.160;17.130;2022-08-01T05:24:13;18.88;;;7.03;;
18001;SDS011;9126;48.160;17.130;2022-08-01T05:26:40;7.93;;;6.38;;
18001;SDS011;9126;48.160;17.130;2022-08-01T05:29:07;8.10;;;5.80;;
18001;SDS011;9126;48.160;17.130;2022-08-01T05:31:34;7.68;;;6.50;;
18001;SDS011;9126;48.160;17.130;2022-08-01T05:34:01;7.25;;;6.43;;
18001;SDS011;9126;48.160;17.130;2022-08-01T05:36:29;9.18;;;6.32;;
18001;SDS011;9126;48.160;17.130;2022-08-01T05:38:56;8.45;;;5.43;;
18001;SDS011;9126;48.160;17.130;2022-08-01T05:41:25;7.85;;;5.18;;
18001;SDS011;9126;48.160;17.130;2022-08-01T05:43:54;7.13;;;6.15;;
18001;SDS011;9126;48.160;17.130;2022-08-01T05:46:21;6.10;;;5.45;;
18001;SDS011;9126;48.160;17.130;2022-08-01T05:48:48;6.90;;;5.45;;
18001;SDS011;9126;48.160;17.130;2022-08-01T05:51:15;8.02;;;6.45;;
18001;SDS011;9126;48.160;17.130;2022-08-01T05:53:43;7.88;;;7.07;;
18001;SDS011;9126;48.160;17.130;2022-08-01T05:56:10;11.90;;;7.07;;
18001;SDS011;9126;48.160;17.130;2022-08-01T05:58:38;10.00;;;7.00;;
18001;SDS011;9126;48.160;17.130;2022-08-01T06:01:06;11.65;;;6.53;;
18001;SDS011;9126;48.160;17.130;2022-08-01T06:03:33;10.40;;;6.80;;
18001;SDS011;9126;48.160;17.130;2022-08-01T06:06:00;9.95;;;7.20;;
18001;SDS011;9126;48.160;17.130;2022-08-01T06:08:27;10.88;;;8.00;;
18001;SDS011;9126;48.160;17.130;2022-08-01T06:10:55;15.88;;;8.25;;
18001;SDS011;9126;48.160;17.130;2022-08-01T06:13:22;9.65;;;8.45;;
18001;SDS011;9126;48.160;17.130;2022-08-01T06:15:50;9.82;;;7.93;;
18001;SDS011;9126;48.160;17.130;2022-08-01T06:18:17;9.98;;;8.52;;
18001;SDS011;9126;48.160;17.130;2022-08-01T06:20:45;11.70;;;8.38;;
18001;SDS011;9126;48.160;17.130;2022-08-01T06:23:14;13.93;;;8.63;;
18001;SDS011;9126;48.160;17.130;2022-08-01T06:25:55;14.88;;;8.38;;
18001;SDS011;9126;48.160;17.130;2022-08-01T06:28:23;11.27;;;8.85;;
18001;SDS011;9126;48.160;17.130;2022-08-01T06:30:51;18.65;;;10.10;;
18001;SDS011;9126;48.160;17.130;2022-08-01T06:33:18;15.35;;;11.15;;
18001;SDS011;9126;48.160;17.130;2022-08-01T06:35:46;12.50;;;9.40;;
18001;SDS011;9126;48.160;17.130;2022-08-01T06:38:13;19.05;;;12.05;;
18001;SDS011;9126;48.160;17.130;2022-08-01T06:40:40;16.77;;;11.88;;
18001;SDS011;9126;48.160;17.130;2022-08-01T06:43:07;14.43;;;10.80;;
18001;SDS011;9126;48.160;17.130;2022-08-01T06:45:36;20.50;;;13.02;;
18001;SDS011;9126;48.160;17.130;2022-08-01T06:48:05;16.58;;;13.15;;
18001;SDS011;9126;48.160;17.130;2022-08-01T06:50:32;17.95;;;12.52;;
18001;SDS011;9126;48.160;17.130;2022-08-01T06:53:00;17.00;;;11.45;;
18001;SDS011;9126;48.160;17.130;2022-08-01T06:55:28;11.98;;;10.65;;
18001;SDS011;9126;48.160;17.130;2022-08-01T06:57:55;10.48;;;9.40;;
18001;SDS011;9126;48.160;17.130;2022-08-01T07:00:23;13.07;;;8.88;;
18001;SDS011;9126;48.160;17.130;2022-08-01T07:02:51;8.93;;;7.97;;
18001;SDS011;9126;48.160;17.130;2022-08-01T07:05:23;11.48;;;7.30;;
18001;SDS011;9126;48.160;17.130;2022-08-01T07:07:50;10.43;;;6.55;;
18001;SDS011;9126;48.160;17.130;2022-08-01T07:10:17;10.98;;;6.80;;
18001;SDS011;9126;48.160;17.130;2022-08-01T07:12:44;8.68;;;7.25;;
18001;SDS011;9126;48.160;17.130;2022-08-01T07:15:11;10.27;;;7.75;;
18001;SDS011;9126;48.160;17.130;2022-08-01T07:17:38;10.90;;;6.97;;
18001;SDS011;9126;48.160;17.130;2022-08-01T07:20:07;9.70;;;7.43;;
18001;SDS011;9126;48.160;17.130;2022-08-01T07:22:37;14.63;;;6.88;;
18001;SDS011;9126;48.160;17.130;2022-08-01T07:25:05;7.47;;;5.93;;
18001;SDS011;9126;48.160;17.130;2022-08-01T07:27:32;11.15;;;6.20;;
18001;SDS011;9126;48.160;17.130;2022-08-01T07:30:00;8.02;;;5.68;;
18001;SDS011;9126;48.160;17.130;2022-08-01T07:32:27;10.35;;;5.32;;
18001;SDS011;9126;48.160;17.130;2022-08-01T07:34:55;7.35;;;5.75;;
18001;SDS011;9126;48.160;17.130;2022-08-01T07:37:22;9.77;;;6.35;;
18001;SDS011;9126;48.160;17.130;2022-08-01T07:39:51;10.68;;;6.85;;
18001;SDS011;9126;48.160;17.130;2022-08-01T07:42:18;8.02;;;5.95;;
18001;SDS011;9126;48.160;17.130;2022-08-01T07:44:45;7.78;;;6.45;;
18001;SDS011;9126;48.160;17.130;2022-08-01T07:47:12;6.40;;;5.72;;
18001;SDS011;9126;48.160;17.130;2022-08-01T07:49:40;8.48;;;6.60;;
18001;SDS011;9126;48.160;17.130;2022-08-01T07:52:07;10.85;;;5.88;;
18001;SDS011;9126;48.160;17.130;2022-08-01T07:54:34;7.20;;;6.13;;
18001;SDS011;9126;48.160;17.130;2022-08-01T07:57:03;9.93;;;5.82;;
18001;SDS011;9126;48.160;17.130;2022-08-01T07:59:31;10.85;;;5.53;;
18001;SDS011;9126;48.160;17.130;2022-08-01T08:01:58;9.32;;;5.18;;
18001;SDS011;9126;48.160;17.130;2022-08-01T08:04:26;9.15;;;5.13;;
18001;SDS011;9126;48.160;17.130;2022-08-01T08:06:53;9.38;;;7.07;;
18001;SDS011;9126;48.160;17.130;2022-08-01T08:09:20;11.77;;;6.20;;
18001;SDS011;9126;48.160;17.130;2022-08-01T08:11:48;6.70;;;5.10;;
18001;SDS011;9126;48.160;17.130;2022-08-01T08:14:16;5.18;;;4.68;;
18001;SDS011;9126;48.160;17.130;2022-08-01T08:16:44;12.80;;;5.18;;
18001;SDS011;9126;48.160;17.130;2022-08-01T08:19:12;17.73;;;6.03;;
18001;SDS011;9126;48.160;17.130;2022-08-01T08:21:39;15.77;;;5.03;;
18001;SDS011;9126;48.160;17.130;2022-08-01T08:24:06;8.57;;;4.70;;
18001;SDS011;9126;48.160;17.130;2022-08-01T08:26:46;6.38;;;4.13;;
18001;SDS011;9126;48.160;17.130;2022-08-01T08:29:14;7.68;;;2.90;;
18001;SDS011;9126;48.160;17.130;2022-08-01T08:31:42;4.53;;;2.88;;
18001;SDS011;9126;48.160;17.130;2022-08-01T08:34:10;8.30;;;3.50;;
18001;SDS011;9126;48.160;17.130;2022-08-01T08:36:37;26.20;;;5.10;;
18001;SDS011;9126;48.160;17.130;2022-08-01T08:39:04;23.67;;;4.22;;
18001;SDS011;9126;48.160;17.130;2022-08-01T08:41:32;19.95;;;5.18;;
18001;SDS011;9126;48.160;17.130;2022-08-01T08:44:00;3.33;;;2.70;;
18001;SDS011;9126;48.160;17.130;2022-08-01T08:46:27;10.23;;;3.03;;
18001;SDS011;9126;48.160;17.130;2022-08-01T08:48:56;11.48;;;3.33;;
18001;SDS011;9126;48.160;17.130;2022-08-01T08:51:23;5.78;;;3.08;;
18001;SDS011;9126;48.160;17.130;2022-08-01T08:53:55;10.93;;;3.47;;
18001;SDS011;9126;48.160;17.130;2022-08-01T08:56:23;4.82;;;2.80;;
18001;SDS011;9126;48.160;17.130;2022-08-01T08:58:52;6.63;;;3.03;;
18001;SDS011;9126;48.160;17.130;2022-08-01T09:01:19;4.75;;;2.90;;
18001;SDS011;9126;48.160;17.130;2022-08-01T09:03:47;3.92;;;2.72;;
18001;SDS011;9126;48.160;17.130;2022-08-01T09:06:16;5.80;;;3.17;;
18001;SDS011;9126;48.160;17.130;2022-08-01T09:08:47;3.42;;;2.92;;
18001;SDS011;9126;48.160;17.130;2022-08-01T09:11:14;3.95;;;2.78;;
18001;SDS011;9126;48.160;17.130;2022-08-01T09:13:41;3.78;;;3.08;;
18001;SDS011;9126;48.160;17.130;2022-08-01T09:16:27;3.75;;;2.70;;
18001;SDS011;9126;48.160;17.130;2022-08-01T09:18:54;3.65;;;3.00;;
18001;SDS011;9126;48.160;17.130;2022-08-01T09:21:35;3.70;;;3.00;;
18001;SDS011;9126;48.160;17.130;2022-08-01T09:24:02;4.30;;;2.88;;
18001;SDS011;9126;48.160;17.130;2022-08-01T09:26:31;3.58;;;2.60;;
18001;SDS011;9126;48.160;17.130;2022-08-01T09:29:00;3.83;;;2.90;;
18001;SDS011;9126;48.160;17.130;2022-08-01T09:31:38;5.82;;;2.83;;
18001;SDS011;9126;48.160;17.130;2022-08-01T09:34:07;3.03;;;2.72;;
18001;SDS011;9126;48.160;17.130;2022-08-01T09:36:46;3.65;;;2.47;;
18001;SDS011;9126;48.160;17.130;2022-08-01T09:39:17;4.40;;;3.15;;
18001;SDS011;9126;48.160;17.130;2022-08-01T09:41:45;2.88;;;2.67;;
18001;SDS011;9126;48.160;17.130;2022-08-01T09:44:13;2.60;;;2.30;;
18001;SDS011;9126;48.160;17.130;2022-08-01T09:46:52;3.88;;;2.70;;
18001;SDS011;9126;48.160;17.130;2022-08-01T09:49:26;7.55;;;2.72;;
18001;SDS011;9126;48.160;17.130;2022-08-01T09:51:56;3.70;;;3.00;;
18001;SDS011;9126;48.160;17.130;2022-08-01T09:54:27;3.22;;;2.83;;
18001;SDS011;9126;48.160;17.130;2022-08-01T09:57:06;5.03;;;2.78;;
18001;SDS011;9126;48.160;17.130;2022-08-01T09:59:38;2.88;;;2.50;;
18001;SDS011;9126;48.160;17.130;2022-08-01T10:02:09;4.30;;;3.05;;
18001;SDS011;9126;48.160;17.130;2022-08-01T10:04:47;3.72;;;2.55;;
18001;SDS011;9126;48.160;17.130;2022-08-01T10:07:17;2.75;;;2.50;;
18001;SDS011;9126;48.160;17.130;2022-08-01T10:09:47;4.43;;;2.67;;
18001;SDS011;9126;48.160;17.130;2022-08-01T10:12:18;3.35;;;2.28;;
18001;SDS011;9126;48.160;17.130;2022-08-01T10:14:50;3.92;;;2.63;;
18001;SDS011;9126;48.160;17.130;2022-08-01T10:17:20;3.95;;;2.92;;
18001;SDS011;9126;48.160;17.130;2022-08-01T10:19:51;4.60;;;2.90;;
18001;SDS011;9126;48.160;17.130;2022-08-01T10:22:24;3.88;;;2.67;;
18001;SDS011;9126;48.160;17.130;2022-08-01T10:24:56;2.70;;;2.50;;
18001;SDS011;9126;48.160;17.130;2022-08-01T10:27:26;8.00;;;2.80;;
18001;SDS011;9126;48.160;17.130;2022-08-01T10:29:57;3.53;;;3.22;;
18001;SDS011;9126;48.160;17.130;2022-08-01T10:32:28;5.97;;;3.15;;
18001;SDS011;9126;48.160;17.130;2022-08-01T10:34:56;4.53;;;2.97;;
18001;SDS011;9126;48.160;17.130;2022-08-01T10:37:28;2.58;;;2.20;;
18001;SDS011;9126;48.160;17.130;2022-08-01T10:40:01;3.15;;;2.40;;
18001;SDS011;9126;48.160;17.130;2022-08-01T10:42:38;4.53;;;2.60;;
18001;SDS011;9126;48.160;17.130;2022-08-01T10:45:08;5.20;;;2.28;;
18001;SDS011;9126;48.160;17.130;2022-08-01T10:47:40;7.50;;;2.50;;
18001;SDS011;9126;48.160;17.130;2022-08-01T10:50:13;4.55;;;2.70;;
18001;SDS011;9126;48.160;17.130;2022-08-01T10:53:07;3.42;;;2.20;;
18001;SDS011;9126;48.160;17.130;2022-08-01T10:55:48;7.78;;;2.60;;
18001;SDS011;9126;48.160;17.130;2022-08-01T10:58:21;3.40;;;2.40;;
18001;SDS011;9126;48.160;17.130;2022-08-01T11:00:56;3.03;;;2.42;;
18001;SDS011;9126;48.160;17.130;2022-08-01T11:03:59;3.63;;;2.30;;
18001;SDS011;9126;48.160;17.130;2022-08-01T11:06:50;2.25;;;2.00;;
18001;SDS011;9126;48.160;17.130;2022-08-01T11:09:23;5.05;;;2.63;;
18001;SDS011;9126;48.160;17.130;2022-08-01T11:11:59;3.53;;;2.08;;
18001;SDS011;9126;48.160;17.130;2022-08-01T11:14:30;2.50;;;2.30;;
18001;SDS011;9126;48.160;17.130;2022-08-01T11:20:05;2.10;;;1.90;;
18001;SDS011;9126;48.160;17.130;2022-08-01T11:28:34;6.85;;;1.90;;
18001;SDS011;9126;48.160;17.130;2022-08-01T11:33:52;7.68;;;2.55;;
18001;SDS011;9126;48.160;17.130;2022-08-01T11:36:19;5.78;;;2.20;;
18001;SDS011;9126;48.160;17.130;2022-08-01T11:38:47;1.92;;;1.70;;
18001;SDS011;9126;48.160;17.130;2022-08-01T11:41:18;2.00;;;1.90;;
18001;SDS011;9126;48.160;17.130;2022-08-01T11:43:55;4.05;;;2.28;;
18001;SDS011;9126;48.160;17.130;2022-08-01T11:52:12;3.28;;;2.17;;
18001;SDS011;9126;48.160;17.130;2022-08-01T11:54:41;2.20;;;2.00;;
18001;SDS011;9126;48.160;17.130;2022-08-01T11:57:13;2.97;;;2.40;;
18001;SDS011;9126;48.160;17.130;2022-08-01T11:59:42;6.32;;;2.40;;
18001;SDS011;9126;48.160;17.130;2022-08-01T12:02:20;6.05;;;2.17;;
18001;SDS011;9126;48.160;17.130;2022-08-01T12:04:50;2.90;;;2.13;;
18001;SDS011;9126;48.160;17.130;2022-08-01T12:07:19;4.18;;;2.13;;
18001;SDS011;9126;48.160;17.130;2022-08-01T12:09:57;4.97;;;2.10;;
18001;SDS011;9126;48.160;17.130;2022-08-01T12:12:28;4.15;;;2.03;;
18001;SDS011;9126;48.160;17.130;2022-08-01T12:14:56;3.17;;;1.80;;
18001;SDS011;9126;48.160;17.130;2022-08-01T12:17:28;2.30;;;2.05;;
18001;SDS011;9126;48.160;17.130;2022-08-01T12:19:59;8.10;;;2.50;;
18001;SDS011;9126;48.160;17.130;2022-08-01T12:22:27;4.43;;;2.40;;
18001;SDS011;9126;48.160;17.130;2022-08-01T12:24:54;3.35;;;2.30;;
18001;SDS011;9126;48.160;17.130;2022-08-01T12:27:25;3.05;;;1.95;;
18001;SDS011;9126;48.160;17.130;2022-08-01T12:29:57;6.93;;;2.20;;
18001;SDS011;9126;48.160;17.130;2022-08-01T12:32:27;2.58;;;2.08;;
18001;SDS011;9126;48.160;17.130;2022-08-01T12:34:56;3.17;;;2.05;;
18001;SDS011;9126;48.160;17.130;2022-08-01T12:37:27;2.67;;;2.25;;
18001;SDS011;9126;48.160;17.130;2022-08-01T12:39:57;5.18;;;2.30;;
18001;SDS011;9126;48.160;17.130;2022-08-01T12:42:25;5.10;;;2.30;;
18001;SDS011;9126;48.160;17.130;2022-08-01T12:44:54;1.98;;;1.85;;
18001;SDS011;9126;48.160;17.130;2022-08-01T12:47:25;2.58;;;1.80;;
18001;SDS011;9126;48.160;17.130;2022-08-01T12:49:52;3.00;;;1.73;;
18001;SDS011;9126;48.160;17.130;2022-08-01T12:52:19;2.13;;;2.00;;
18001;SDS011;9126;48.160;17.130;2022-08-01T12:57:45;3.67;;;2.33;;
18001;SDS011;9126;48.160;17.130;2022-08-01T13:00:18;2.90;;;2.33;;
18001;SDS011;9126;48.160;17.130;2022-08-01T13:02:47;2.92;;;2.03;;
18001;SDS011;9126;48.160;17.130;2022-08-01T13:05:15;2.50;;;1.80;;
18001;SDS011;9126;48.160;17.130;2022-08-01T13:07:44;2.55;;;1.70;;
18001;SDS011;9126;48.160;17.130;2022-08-01T13:10:59;2.80;;;2.13;;
18001;SDS011;9126;48.160;17.130;2022-08-01T13:13:08;2.45;;;2.25;;
18001;SDS011;9126;48.160;17.130;2022-08-01T13:15:36;2.08;;;1.88;;
18001;SDS011;9126;48.160;17.130;2022-08-01T13:18:25;5.00;;;2.20;;
18001;SDS011;9126;48.160;17.130;2022-08-01T13:21:09;1.83;;;1.67;;
18001;SDS011;9126;48.160;17.130;2022-08-01T13:23:38;2.33;;;1.80;;
18001;SDS011;9126;48.160;17.130;2022-08-01T13:26:06;4.18;;;2.10;;
18001;SDS011;9126;48.160;17.130;2022-08-01T13:28:43;2.60;;;1.95;;
18001;SDS011;9126;48.160;17.130;2022-08-01T13:31:10;6.05;;;2.22;;
18001;SDS011;9126;48.160;17.130;2022-08-01T13:33:41;3.28;;;1.75;;
18001;SDS011;9126;48.160;17.130;2022-08-01T13:36:09;4.18;;;1.85;;
18001;SDS011;9126;48.160;17.130;2022-08-01T13:38:41;6.07;;;1.85;;
18001;SDS011;9126;48.160;17.130;2022-08-01T13:41:40;2.00;;;1.90;;
18001;SDS011;9126;48.160;17.130;2022-08-01T13:44:12;2.90;;;1.80;;
18001;SDS011;9126;48.160;17.130;2022-08-01T13:46:41;4.00;;;2.20;;
18001;SDS011;9126;48.160;17.130;2022-08-01T13:49:09;5.20;;;1.55;;
18001;SDS011;9126;48.160;17.130;2022-08-01T13:51:38;4.25;;;2.00;;
18001;SDS011;9126;48.160;17.130;2022-08-01T13:54:06;5.00;;;2.20;;
18001;SDS011;9126;48.160;17.130;2022-08-01T13:56:33;12.43;;;2.72;;
18001;SDS011;9126;48.160;17.130;2022-08-01T13:59:01;4.50;;;1.83;;
18001;SDS011;9126;48.160;17.130;2022-08-01T14:01:29;7.55;;;2.03;;
18001;SDS011;9126;48.160;17.130;2022-08-01T14:03:56;3.97;;;2.00;;
18001;SDS011;9126;48.160;17.130;2022-08-01T14:06:24;4.30;;;2.05;;
18001;SDS011;9126;48.160;17.130;2022-08-01T14:08:51;3.28;;;1.88;;
18001;SDS011;9126;48.160;17.130;2022-08-01T14:11:19;4.55;;;2.00;;
18001;SDS011;9126;48.160;17.130;2022-08-01T14:13:46;4.70;;;1.60;;
18001;SDS011;9126;48.160;17.130;2022-08-01T14:16:14;4.20;;;1.70;;
18001;SDS011;9126;48.160;17.130;2022-08-01T14:18:48;5.22;;;1.70;;
18001;SDS011;9126;48.160;17.130;2022-08-01T14:21:18;4.45;;;2.00;;
18001;SDS011;9126;48.160;17.130;2022-08-01T14:23:50;6.47;;;2.00;;
18001;SDS011;9126;48.160;17.130;2022-08-01T14:26:19;3.30;;;1.88;;
18001;SDS011;9126;48.160;17.130;2022-08-01T14:28:46;10.93;;;2.33;;
18001;SDS011;9126;48.160;17.130;2022-08-01T14:31:13;4.25;;;2.13;;
18001;SDS011;9126;48.160;17.130;2022-08-01T14:33:40;5.22;;;2.00;;
18001;SDS011;9126;48.160;17.130;2022-08-01T14:36:10;2.40;;;1.90;;
18001;SDS011;9126;48.160;17.130;2022-08-01T14:38:37;3.92;;;2.70;;
18001;SDS011;9126;48.160;17.130;2022-08-01T14:41:04;11.40;;;2.83;;
18001;SDS011;9126;48.160;17.130;2022-08-01T14:43:31;2.72;;;2.58;;
18001;SDS011;9126;48.160;17.130;2022-08-01T14:45:58;4.13;;;2.58;;
18001;SDS011;9126;48.160;17.130;2022-08-01T14:48:25;6.55;;;2.58;;
18001;SDS011;9126;48.160;17.130;2022-08-01T14:50:56;6.00;;;2.78;;
18001;SDS011;9126;48.160;17.130;2022-08-01T14:53:25;7.03;;;2.95;;
18001;SDS011;9126;48.160;17.130;2022-08-01T14:55:52;3.05;;;2.50;;
18001;SDS011;9126;48.160;17.130;2022-08-01T14:58:19;4.07;;;2.90;;
18001;SDS011;9126;48.160;17.130;2022-08-01T15:00:46;2.58;;;2.38;;
18001;SDS011;9126;48.160;17.130;2022-08-01T15:03:13;6.22;;;2.83;;
18001;SDS011;9126;48.160;17.130;2022-08-01T15:05:41;10.73;;;3.22;;
18001;SDS011;9126;48.160;17.130;2022-08-01T15:08:08;9.68;;;3.80;;
18001;SDS011;9126;48.160;17.130;2022-08-01T15:10:36;7.07;;;4.07;;
18001;SDS011;9126;48.160;17.130;2022-08-01T15:13:03;5.85;;;4.00;;
18001;SDS011;9126;48.160;17.130;2022-08-01T15:15:30;6.22;;;3.53;;
18001;SDS011;9126;48.160;17.130;2022-08-01T15:17:58;7.20;;;3.22;;
18001;SDS011;9126;48.160;17.130;2022-08-01T15:20:25;4.05;;;2.55;;
18001;SDS011;9126;48.160;17.130;2022-08-01T15:22:52;4.75;;;2.92;;